createdAt,value
2023-03-29T00:02:19.816Z,4.93
2023-03-29T00:04:47.299Z,4.97
2023-03-29T00:07:14.616Z,5.00
2023-03-29T00:09:42.666Z,5.72
2023-03-29T00:12:11.276Z,5.85
2023-03-29T00:14:38.320Z,4.80
2023-03-29T00:17:05.550Z,4.70
2023-03-29T00:19:36.788Z,4.63
2023-03-29T00:22:06.346Z,4.10
2023-03-29T00:27:00.433Z,3.95
2023-03-29T00:29:27.598Z,3.80
2023-03-29T00:31:56.133Z,3.80
2023-03-29T00:34:24.313Z,4.22
2023-03-29T00:36:53.091Z,3.90
2023-03-29T00:39:21.266Z,3.75
2023-03-29T00:41:49.928Z,3.70
2023-03-29T00:44:54.355Z,4.05
2023-03-29T00:47:50.924Z,4.00
2023-03-29T00:50:43.741Z,4.38
2023-03-29T00:53:36.438Z,3.80
2023-03-29T00:56:07.534Z,4.65
2023-03-29T00:59:00.601Z,4.70
2023-03-29T01:01:42.759Z,4.45
2023-03-29T01:04:29.632Z,4.65
2023-03-29T01:07:13.689Z,4.70
2023-03-29T01:09:46.019Z,4.78
2023-03-29T01:12:20.974Z,4.30
2023-03-29T01:15:05.557Z,4.72
2023-03-29T01:17:33.306Z,4.93
2023-03-29T01:20:34.655Z,4.97
2023-03-29T01:23:27.095Z,4.60
2023-03-29T01:26:07.566Z,4.20
2023-03-29T01:28:40.429Z,4.40
2023-03-29T01:31:33.150Z,4.20
2023-03-29T01:34:38.973Z,4.20
2023-03-29T01:37:24.743Z,4.18
2023-03-29T01:39:53.153Z,4.40
2023-03-29T01:42:25.960Z,4.20
2023-03-29T01:45:11.679Z,3.97
2023-03-29T01:47:47.701Z,4.60
2023-03-29T01:50:22.998Z,4.60
2023-03-29T01:53:18.292Z,5.28
2023-03-29T01:55:52.412Z,4.93
2023-03-29T01:58:23.882Z,4.90
2023-03-29T02:00:55.389Z,4.78
2023-03-29T02:03:26.626Z,4.80
2023-03-29T02:05:57.407Z,5.70
2023-03-29T02:08:29.778Z,5.20
2023-03-29T02:10:58.150Z,5.47
2023-03-29T02:13:25.240Z,5.22
2023-03-29T02:15:53.112Z,5.28
2023-03-29T02:18:21.183Z,5.15
2023-03-29T02:20:50.984Z,4.82
2023-03-29T02:23:24.775Z,5.63
2023-03-29T02:25:57.180Z,4.80
2023-03-29T02:28:27.548Z,5.00
2023-03-29T02:31:05.724Z,5.00
2023-03-29T02:34:24.563Z,4.93
2023-03-29T02:37:15.843Z,4.90
2023-03-29T02:39:43.096Z,4.80
2023-03-29T02:42:11.097Z,4.90
2023-03-29T02:44:42.166Z,4.90
2023-03-29T02:49:56.810Z,4.70
2023-03-29T02:52:28.359Z,4.60
2023-03-29T02:54:56.156Z,4.15
2023-03-29T02:57:26.831Z,4.32
2023-03-29T02:59:57.105Z,4.38
2023-03-29T03:02:27.886Z,4.35
2023-03-29T03:04:55.977Z,4.78
2023-03-29T03:07:24.967Z,4.20
2023-03-29T03:09:52.850Z,4.43
2023-03-29T03:12:20.090Z,3.92
2023-03-29T03:14:47.384Z,4.20
2023-03-29T03:17:14.357Z,4.40
2023-03-29T03:19:42.017Z,4.22
2023-03-29T03:22:11.724Z,3.83
2023-03-29T03:24:38.862Z,3.95
2023-03-29T03:27:06.315Z,3.60
2023-03-29T03:29:33.425Z,4.05
2023-03-29T03:32:19.266Z,3.50
2023-03-29T03:34:49.801Z,3.65
2023-03-29T03:37:16.862Z,3.33
2023-03-29T03:39:44.185Z,3.40
2023-03-29T03:42:11.817Z,3.75
2023-03-29T03:44:42.780Z,3.30
2023-03-29T03:47:30.827Z,3.53
2023-03-29T03:50:09.651Z,3.60
2023-03-29T03:52:36.787Z,2.95
2023-03-29T03:55:04.505Z,3.30
2023-03-29T03:57:43.342Z,2.95
2023-03-29T04:00:21.352Z,3.30
2023-03-29T04:03:21.821Z,3.40
2023-03-29T04:05:48.991Z,3.00
2023-03-29T04:08:17.960Z,3.30
2023-03-29T04:11:09.329Z,2.97
2023-03-29T04:16:24.417Z,2.85
2023-03-29T04:18:52.227Z,3.05
2023-03-29T04:21:21.377Z,3.50
2023-03-29T04:23:48.963Z,3.13
2023-03-29T04:26:17.873Z,3.22
2023-03-29T04:28:48.094Z,3.53
2023-03-29T04:31:20.731Z,2.88
2023-03-29T04:33:59.823Z,2.92
2023-03-29T04:36:28.014Z,3.45
2023-03-29T04:38:55.137Z,3.13
2023-03-29T04:41:23.815Z,3.20
2023-03-29T04:44:04.452Z,3.05
2023-03-29T04:46:32.578Z,3.35
2023-03-29T04:49:02.973Z,3.80
2023-03-29T04:51:39.652Z,2.83
2023-03-29T04:54:06.867Z,3.63
2023-03-29T04:56:58.376Z,3.28
2023-03-29T04:59:40.370Z,3.20
2023-03-29T05:02:27.726Z,2.85
2023-03-29T05:04:54.805Z,3.22
2023-03-29T05:07:22.088Z,3.10
2023-03-29T05:09:50.381Z,3.17
2023-03-29T05:12:17.884Z,3.08
2023-03-29T05:14:53.391Z,2.53
2023-03-29T05:17:23.925Z,3.10
2023-03-29T05:19:51.393Z,3.45
2023-03-29T05:22:19.133Z,3.20
2023-03-29T05:24:46.410Z,2.97
2023-03-29T05:27:17.409Z,3.50
2023-03-29T05:29:55.580Z,3.67
2023-03-29T05:32:36.912Z,3.00
2023-03-29T05:35:05.663Z,2.70
2023-03-29T05:37:34.478Z,2.80
2023-03-29T05:40:10.241Z,2.80
2023-03-29T05:43:09.657Z,2.95
2023-03-29T05:45:36.860Z,2.88
2023-03-29T05:48:04.242Z,2.67
2023-03-29T05:50:32.809Z,2.95
2023-03-29T05:53:00.324Z,3.03
2023-03-29T05:55:28.122Z,2.58
2023-03-29T05:57:55.930Z,2.88
2023-03-29T06:00:26.912Z,4.13
2023-03-29T06:03:21.164Z,3.25
2023-03-29T06:05:56.404Z,2.97
2023-03-29T06:08:23.977Z,2.90
2023-03-29T06:11:09.013Z,3.03
2023-03-29T06:16:47.181Z,3.25
2023-03-29T06:19:15.385Z,2.53
2023-03-29T06:21:42.436Z,2.70
2023-03-29T06:24:13.545Z,2.50
2023-03-29T06:26:46.601Z,3.13
2023-03-29T06:29:14.853Z,3.28
2023-03-29T06:31:43.168Z,2.67
2023-03-29T06:37:01.201Z,2.92
2023-03-29T06:39:28.638Z,3.20
2023-03-29T06:42:20.060Z,2.67
2023-03-29T06:45:17.931Z,2.72
2023-03-29T06:47:48.504Z,3.47
2023-03-29T06:50:17.400Z,2.65
2023-03-29T06:52:54.034Z,2.83
2023-03-29T06:55:22.893Z,2.40
2023-03-29T06:57:50.823Z,2.95
2023-03-29T07:00:19.363Z,2.85
2023-03-29T07:03:19.986Z,2.78
2023-03-29T07:05:52.226Z,2.72
2023-03-29T07:08:22.587Z,2.92
2023-03-29T07:10:59.552Z,3.17
2023-03-29T07:13:44.376Z,2.40
2023-03-29T07:16:14.909Z,2.47
2023-03-29T07:18:49.502Z,2.72
2023-03-29T07:21:36.665Z,2.88
2023-03-29T07:24:06.926Z,2.97
2023-03-29T07:26:35.945Z,3.17
2023-03-29T07:29:03.117Z,3.13
2023-03-29T07:31:30.889Z,2.90
2023-03-29T07:34:17.625Z,2.90
2023-03-29T07:36:45.304Z,3.20
2023-03-29T07:39:15.799Z,2.90
2023-03-29T07:41:57.804Z,3.53
2023-03-29T07:44:27.121Z,2.97
2023-03-29T07:46:55.324Z,2.90
2023-03-29T07:49:22.361Z,3.08
2023-03-29T07:51:49.519Z,3.13
2023-03-29T07:54:16.573Z,2.95
2023-03-29T07:57:06.920Z,2.88
2023-03-29T07:59:41.522Z,3.08
2023-03-29T08:02:22.728Z,3.15
2023-03-29T08:04:54.109Z,2.80
2023-03-29T08:07:21.411Z,3.03
2023-03-29T08:10:17.154Z,3.33
2023-03-29T08:13:09.360Z,2.80
2023-03-29T08:15:47.453Z,3.05
2023-03-29T08:18:41.204Z,3.22
2023-03-29T08:21:11.494Z,2.80
2023-03-29T08:23:38.897Z,5.43
2023-03-29T08:26:29.544Z,2.67
2023-03-29T08:28:59.440Z,2.95
2023-03-29T08:31:28.330Z,2.42
2023-03-29T08:33:56.341Z,2.80
2023-03-29T08:36:48.650Z,3.15
2023-03-29T08:39:26.869Z,2.63
2023-03-29T08:42:34.821Z,2.42
2023-03-29T08:45:29.727Z,2.22
2023-03-29T08:48:05.098Z,3.03
2023-03-29T08:50:39.306Z,2.30
2023-03-29T08:53:19.402Z,2.38
2023-03-29T08:56:12.899Z,2.30
2023-03-29T08:58:58.846Z,2.70
2023-03-29T09:01:36.344Z,2.40
2023-03-29T09:04:13.242Z,2.83
2023-03-29T09:09:38.730Z,3.00
2023-03-29T09:12:33.689Z,2.80
2023-03-29T09:15:06.749Z,2.97
2023-03-29T09:18:06.385Z,3.13
2023-03-29T09:20:54.154Z,3.05
2023-03-29T09:23:55.882Z,3.38
2023-03-29T09:27:05.600Z,2.80
2023-03-29T09:29:57.306Z,3.20
2023-03-29T09:35:39.286Z,2.75
2023-03-29T09:38:11.511Z,2.78
2023-03-29T09:40:50.271Z,2.38
2023-03-29T09:43:36.228Z,2.90
2023-03-29T09:46:16.152Z,3.00
2023-03-29T09:48:45.864Z,2.63
2023-03-29T09:51:14.599Z,3.35
2023-03-29T09:53:41.736Z,2.30
2023-03-29T09:56:19.137Z,3.13
2023-03-29T09:58:51.915Z,2.80
2023-03-29T10:01:20.470Z,2.65
2023-03-29T10:03:53.830Z,2.92
2023-03-29T10:06:26.973Z,3.05
2023-03-29T10:08:59.450Z,3.38
2023-03-29T10:11:37.152Z,2.58
2023-03-29T10:14:38.327Z,5.45
2023-03-29T10:17:13.893Z,3.20
2023-03-29T10:19:52.176Z,3.38
2023-03-29T10:22:24.032Z,3.17
2023-03-29T10:24:53.534Z,3.40
2023-03-29T10:27:24.126Z,4.15
2023-03-29T10:29:51.641Z,4.50
2023-03-29T10:32:34.333Z,4.85
2023-03-29T10:35:13.301Z,4.45
2023-03-29T10:37:43.422Z,5.57
2023-03-29T10:40:28.979Z,4.50
2023-03-29T10:43:00.184Z,4.53
2023-03-29T10:45:34.910Z,4.68
2023-03-29T10:48:06.996Z,4.95
2023-03-29T10:50:38.237Z,4.32
2023-03-29T10:53:30.128Z,5.20
2023-03-29T10:56:37.162Z,5.13
2023-03-29T10:59:19.398Z,3.95
2023-03-29T11:02:08.437Z,3.67
2023-03-29T11:05:00.304Z,3.90
2023-03-29T11:07:39.966Z,3.72
2023-03-29T11:10:45.638Z,3.97
2023-03-29T11:13:59.429Z,3.97
2023-03-29T11:16:55.151Z,4.63
2023-03-29T11:19:42.907Z,3.53
2023-03-29T11:22:25.677Z,5.20
2023-03-29T11:25:08.190Z,4.40
2023-03-29T11:27:35.168Z,4.03
2023-03-29T11:30:30.928Z,3.75
2023-03-29T11:33:14.384Z,3.88
2023-03-29T11:35:52.766Z,4.05
2023-03-29T11:38:45.218Z,3.33
2023-03-29T11:41:21.640Z,3.58
2023-03-29T11:44:22.731Z,4.18
2023-03-29T11:47:05.212Z,4.18
2023-03-29T11:49:49.477Z,3.88
2023-03-29T11:52:26.949Z,3.72
2023-03-29T11:55:03.668Z,4.70
2023-03-29T11:57:33.130Z,4.35
2023-03-29T12:00:19.820Z,4.43
2023-03-29T12:02:55.897Z,5.15
2023-03-29T12:05:31.734Z,4.22
2023-03-29T12:08:26.953Z,4.82
2023-03-29T12:11:07.392Z,5.57
2023-03-29T12:13:41.749Z,4.63
2023-03-29T12:16:14.815Z,4.57
2023-03-29T12:18:49.578Z,3.95
2023-03-29T12:21:20.773Z,4.15
2023-03-29T12:23:49.497Z,4.15
2023-03-29T12:26:40.623Z,3.85
2023-03-29T12:29:52.476Z,4.63
2023-03-29T12:32:38.243Z,3.78
2023-03-29T12:35:37.913Z,4.13
2023-03-29T12:38:27.630Z,3.75
2023-03-29T12:41:23.373Z,3.50
2023-03-29T12:43:53.195Z,4.20
2023-03-29T12:46:40.913Z,3.55
2023-03-29T12:49:33.156Z,3.80
2023-03-29T12:52:03.276Z,3.28
2023-03-29T12:54:33.950Z,3.33
2023-03-29T12:57:41.661Z,3.30
2023-03-29T13:00:26.568Z,4.78
2023-03-29T13:03:05.195Z,3.65
2023-03-29T13:05:36.402Z,4.68
2023-03-29T13:08:26.555Z,3.45
2023-03-29T13:10:56.165Z,3.60
2023-03-29T13:13:36.785Z,3.70
2023-03-29T13:16:15.826Z,3.83
2023-03-29T13:19:01.442Z,4.00
2023-03-29T13:21:56.835Z,3.33
2023-03-29T13:24:39.159Z,3.63
2023-03-29T13:27:36.324Z,3.67
2023-03-29T13:30:21.005Z,3.72
2023-03-29T13:32:55.994Z,3.47
2023-03-29T13:35:41.519Z,3.30
2023-03-29T13:38:31.469Z,4.13
2023-03-29T13:41:00.328Z,3.40
2023-03-29T13:43:38.533Z,3.63
2023-03-29T13:46:20.657Z,3.78
2023-03-29T13:49:04.902Z,3.33
2023-03-29T13:51:37.124Z,4.00
2023-03-29T13:54:33.475Z,4.55
2023-03-29T13:57:07.869Z,4.40
2023-03-29T13:59:41.273Z,4.15
2023-03-29T14:02:19.193Z,4.28
2023-03-29T14:04:50.151Z,4.57
2023-03-29T14:07:21.180Z,4.45
2023-03-29T14:09:51.239Z,4.32
2023-03-29T14:12:18.437Z,4.07
2023-03-29T14:14:58.141Z,4.28
2023-03-29T14:17:25.834Z,4.70
2023-03-29T14:19:57.914Z,4.45
2023-03-29T14:22:29.637Z,4.55
2023-03-29T14:25:01.254Z,5.18
2023-03-29T14:27:32.056Z,3.88
2023-03-29T14:29:59.172Z,4.53
2023-03-29T14:32:31.614Z,4.97
2023-03-29T14:35:00.660Z,5.10
2023-03-29T14:37:29.090Z,5.53
2023-03-29T14:39:58.605Z,4.65
2023-03-29T14:45:05.272Z,5.93
2023-03-29T14:47:33.777Z,7.43
2023-03-29T14:50:01.877Z,5.30
2023-03-29T14:52:31.515Z,5.18
2023-03-29T14:55:02.393Z,4.55
2023-03-29T14:57:36.723Z,5.32
2023-03-29T15:00:35.184Z,5.50
2023-03-29T15:03:03.154Z,5.53
2023-03-29T15:05:44.057Z,4.88
2023-03-29T15:08:18.559Z,5.35
2023-03-29T15:10:45.955Z,5.13
2023-03-29T15:13:19.820Z,5.50
2023-03-29T15:15:47.334Z,5.47
2023-03-29T15:18:17.258Z,5.40
2023-03-29T15:20:45.160Z,5.28
2023-03-29T15:23:15.410Z,5.63
2023-03-29T15:25:52.244Z,5.72
2023-03-29T15:28:31.045Z,5.30
2023-03-29T15:31:07.726Z,5.38
2023-03-29T15:33:39.756Z,6.25
2023-03-29T15:36:08.930Z,5.40
2023-03-29T15:38:43.914Z,5.90
2023-03-29T15:41:12.068Z,5.28
2023-03-29T15:43:39.180Z,4.90
2023-03-29T15:46:06.849Z,5.28
2023-03-29T15:48:34.288Z,5.38
2023-03-29T15:51:06.184Z,5.78
2023-03-29T15:53:33.956Z,7.15
2023-03-29T15:56:05.524Z,6.07
2023-03-29T15:58:34.824Z,5.50
2023-03-29T16:01:33.538Z,5.72
2023-03-29T16:04:02.748Z,5.63
2023-03-29T16:06:30.183Z,6.25
2023-03-29T16:08:57.519Z,5.90
2023-03-29T16:11:25.117Z,6.15
2023-03-29T16:13:52.176Z,6.38
2023-03-29T16:16:19.211Z,6.28
2023-03-29T16:18:46.442Z,6.35
2023-03-29T16:21:15.997Z,6.65
2023-03-29T16:26:16.719Z,6.55
2023-03-29T16:28:44.194Z,6.38
2023-03-29T16:31:12.775Z,6.75
2023-03-29T16:33:41.082Z,6.18
2023-03-29T16:36:11.031Z,7.18
2023-03-29T16:38:38.596Z,6.72
2023-03-29T16:41:06.142Z,7.35
2023-03-29T16:43:33.498Z,7.30
2023-03-29T16:46:00.641Z,7.50
2023-03-29T16:48:27.751Z,7.40
2023-03-29T16:50:54.764Z,7.57
2023-03-29T16:53:22.430Z,6.60
2023-03-29T16:55:49.922Z,7.57
2023-03-29T16:58:20.124Z,7.88
2023-03-29T17:00:48.525Z,7.43
2023-03-29T17:03:30.554Z,7.95
2023-03-29T17:05:59.337Z,8.18
2023-03-29T17:08:29.085Z,7.85
2023-03-29T17:11:07.210Z,7.60
2023-03-29T17:13:39.327Z,7.80
2023-03-29T17:16:07.247Z,7.28
2023-03-29T17:18:34.747Z,7.68
2023-03-29T17:21:01.846Z,7.97
2023-03-29T17:23:29.461Z,7.07
2023-03-29T17:26:22.423Z,7.80
2023-03-29T17:31:19.263Z,7.30
2023-03-29T17:33:47.566Z,7.70
2023-03-29T17:36:14.864Z,7.22
2023-03-29T17:38:43.275Z,8.50
2023-03-29T17:41:22.310Z,8.55
2023-03-29T17:43:52.084Z,7.45
2023-03-29T17:46:22.940Z,8.82
2023-03-29T17:48:55.220Z,8.27
2023-03-29T17:51:25.838Z,8.82
2023-03-29T17:53:55.854Z,8.52
2023-03-29T17:56:32.122Z,9.73
2023-03-29T17:59:08.589Z,7.80
2023-03-29T18:01:50.356Z,9.13
2023-03-29T18:04:17.960Z,8.57
2023-03-29T18:06:45.965Z,8.65
2023-03-29T18:09:13.368Z,10.07
2023-03-29T18:11:45.008Z,9.35
2023-03-29T18:14:21.617Z,9.43
2023-03-29T18:16:54.762Z,8.23
2023-03-29T18:19:22.839Z,9.18
2023-03-29T18:21:52.398Z,9.55
2023-03-29T18:24:29.947Z,9.73
2023-03-29T18:27:46.109Z,10.18
2023-03-29T18:30:14.059Z,9.02
2023-03-29T18:32:41.380Z,10.00
2023-03-29T18:35:09.345Z,14.20
2023-03-29T18:37:40.125Z,9.15
2023-03-29T18:40:08.423Z,10.82
2023-03-29T18:42:35.555Z,13.48
2023-03-29T18:45:02.926Z,10.45
2023-03-29T18:47:30.606Z,10.15
2023-03-29T18:49:58.245Z,12.52
2023-03-29T18:52:25.295Z,10.07
2023-03-29T18:54:52.379Z,12.23
2023-03-29T18:57:19.759Z,15.18
2023-03-29T18:59:47.917Z,11.48
2023-03-29T19:02:15.774Z,10.23
2023-03-29T19:04:43.067Z,10.98
2023-03-29T19:07:10.172Z,10.13
2023-03-29T19:09:37.216Z,10.45
2023-03-29T19:12:04.387Z,10.25
2023-03-29T19:14:31.580Z,10.45
2023-03-29T19:17:01.139Z,9.80
2023-03-29T19:19:28.184Z,10.30
2023-03-29T19:21:58.267Z,11.32
2023-03-29T19:24:27.104Z,10.27
2023-03-29T19:26:54.310Z,13.35
2023-03-29T19:29:21.772Z,12.13
2023-03-29T19:31:48.904Z,11.15
2023-03-29T19:34:19.707Z,11.07
2023-03-29T19:36:47.059Z,11.68
2023-03-29T19:39:14.311Z,10.75
2023-03-29T19:41:42.009Z,10.73
2023-03-29T19:44:09.207Z,10.63
2023-03-29T19:46:36.316Z,11.70
2023-03-29T19:49:05.125Z,10.93
2023-03-29T19:51:32.796Z,11.55
2023-03-29T19:53:59.817Z,10.70
2023-03-29T19:56:26.898Z,10.05
2023-03-29T19:58:54.059Z,11.25
2023-03-29T20:01:21.508Z,11.10
2023-03-29T20:03:49.704Z,11.02
2023-03-29T20:06:18.437Z,11.40
2023-03-29T20:08:46.189Z,11.73
2023-03-29T20:11:14.902Z,12.18
2023-03-29T20:13:43.715Z,11.98
2023-03-29T20:16:13.345Z,11.70
2023-03-29T20:18:40.677Z,13.15
2023-03-29T20:21:08.854Z,11.13
2023-03-29T20:23:36.579Z,11.57
2023-03-29T20:26:03.693Z,10.90
2023-03-29T20:28:31.579Z,11.77
2023-03-29T20:31:03.810Z,10.77
2023-03-29T20:33:31.064Z,10.30
2023-03-29T20:35:58.489Z,10.75
2023-03-29T20:38:26.008Z,10.20
2023-03-29T20:40:53.677Z,9.73
2023-03-29T20:43:20.733Z,11.13
2023-03-29T20:45:53.980Z,10.20
2023-03-29T20:48:30.306Z,9.80
2023-03-29T20:50:57.833Z,9.60
2023-03-29T20:53:25.972Z,9.75
2023-03-29T20:55:53.269Z,9.88
2023-03-29T20:58:20.500Z,13.88
2023-03-29T21:00:48.529Z,10.27
2023-03-29T21:03:15.705Z,9.98
2023-03-29T21:05:43.528Z,10.75
2023-03-29T21:08:11.168Z,10.82
2023-03-29T21:10:38.200Z,10.40
2023-03-29T21:13:06.004Z,10.35
2023-03-29T21:15:33.790Z,11.10
2023-03-29T21:18:00.868Z,11.32
2023-03-29T21:20:27.965Z,9.93
2023-03-29T21:22:54.989Z,10.63
2023-03-29T21:25:22.429Z,10.57
2023-03-29T21:27:49.490Z,9.93
2023-03-29T21:30:16.603Z,11.73
2023-03-29T21:32:43.731Z,10.70
2023-03-29T21:35:11.311Z,11.02
2023-03-29T21:37:38.372Z,11.32
2023-03-29T21:40:07.109Z,11.30
2023-03-29T21:42:34.745Z,12.45
2023-03-29T21:45:01.879Z,11.15
2023-03-29T21:47:31.482Z,11.05
2023-03-29T21:49:58.600Z,11.73
2023-03-29T21:52:25.748Z,10.95
2023-03-29T21:54:52.794Z,11.02
2023-03-29T21:57:19.886Z,10.25
2023-03-29T21:59:46.935Z,11.68
2023-03-29T22:02:13.968Z,11.25
2023-03-29T22:04:41.486Z,10.63
2023-03-29T22:07:10.765Z,11.20
2023-03-29T22:09:37.976Z,11.40
2023-03-29T22:12:05.255Z,10.90
2023-03-29T22:14:35.340Z,11.02
2023-03-29T22:17:07.687Z,10.07
2023-03-29T22:19:41.919Z,10.65
2023-03-29T22:22:13.704Z,11.23
2023-03-29T22:24:42.148Z,12.10
2023-03-29T22:27:10.653Z,11.38
2023-03-29T22:29:37.782Z,10.50
2023-03-29T22:32:05.976Z,11.43
2023-03-29T22:34:33.306Z,12.57
2023-03-29T22:37:00.308Z,11.32
2023-03-29T22:39:27.558Z,11.48
2023-03-29T22:41:54.650Z,12.60
2023-03-29T22:44:21.976Z,11.98
2023-03-29T22:46:49.150Z,11.13
2023-03-29T22:49:16.189Z,11.68
2023-03-29T22:51:43.274Z,11.52
2023-03-29T22:54:10.615Z,11.73
2023-03-29T22:56:37.674Z,11.10
2023-03-29T22:59:04.781Z,10.98
2023-03-29T23:01:31.910Z,10.43
2023-03-29T23:03:59.016Z,10.57
2023-03-29T23:06:26.101Z,10.25
2023-03-29T23:08:53.118Z,10.82
2023-03-29T23:11:20.187Z,9.60
2023-03-29T23:13:48.952Z,9.90
2023-03-29T23:16:16.524Z,9.57
2023-03-29T23:18:43.629Z,9.77
2023-03-29T23:21:10.733Z,9.25
2023-03-29T23:23:38.423Z,9.52
2023-03-29T23:26:08.457Z,9.98
2023-03-29T23:28:35.776Z,9.10
2023-03-29T23:31:11.653Z,9.63
2023-03-29T23:33:42.853Z,9.02
2023-03-29T23:36:15.928Z,10.13
2023-03-29T23:38:45.560Z,9.35
2023-03-29T23:41:13.330Z,8.30
2023-03-29T23:43:43.020Z,8.65
2023-03-29T23:46:13.263Z,8.63
2023-03-29T23:48:40.467Z,8.63
2023-03-29T23:51:10.168Z,11.20
2023-03-29T23:53:37.482Z,10.13
2023-03-29T23:56:05.778Z,10.80
2023-03-29T23:58:36.078Z,17.13
